createdAt,value
2018-08-31T00:00:05.370Z,73.70
2018-08-31T00:00:25.266Z,73.60
2018-08-31T00:00:45.772Z,73.54
2018-08-31T00:01:05.973Z,73.45
2018-08-31T00:01:25.829Z,73.38
2018-08-31T00:01:46.267Z,73.32
2018-08-31T00:02:06.976Z,73.26
2018-08-31T00:02:26.833Z,73.23
2018-08-31T00:02:47.194Z,73.19
2018-08-31T00:03:07.857Z,73.15
2018-08-31T00:03:27.716Z,73.15
2018-08-31T00:03:48.266Z,73.14
2018-08-31T00:04:08.421Z,73.10
2018-08-31T00:04:28.279Z,73.12
2018-08-31T00:04:49.008Z,73.04
2018-08-31T00:05:09.228Z,72.97
2018-08-31T00:05:29.079Z,72.97
2018-08-31T00:05:49.778Z,72.88
2018-08-31T00:06:29.644Z,72.79
2018-08-31T00:06:50.376Z,72.61
2018-08-31T00:07:10.279Z,72.57
2018-08-31T00:07:30.636Z,72.51
2018-08-31T00:07:51.294Z,72.48
2018-08-31T00:08:11.181Z,72.42
2018-08-31T00:08:31.653Z,72.40
2018-08-31T00:08:52.314Z,72.41
2018-08-31T00:09:12.180Z,72.35
2018-08-31T00:09:32.714Z,72.32
2018-08-31T00:09:52.849Z,72.19
2018-08-31T00:10:12.788Z,72.23
2018-08-31T00:10:33.316Z,72.27
2018-08-31T00:10:53.465Z,72.23
2018-08-31T00:11:13.326Z,72.16
2018-08-31T00:11:34.005Z,72.18
2018-08-31T00:11:54.143Z,72.16
2018-08-31T00:12:14.009Z,72.28
2018-08-31T00:12:34.739Z,72.21
2018-08-31T00:12:54.881Z,72.02
2018-08-31T00:13:14.736Z,72.01
2018-08-31T00:13:35.460Z,72.01
2018-08-31T00:13:55.317Z,71.96
2018-08-31T00:14:15.668Z,71.89
2018-08-31T00:14:36.304Z,71.84
2018-08-31T00:14:56.150Z,71.75
2018-08-31T00:15:16.621Z,71.70
2018-08-31T00:15:37.297Z,71.69
2018-08-31T00:15:57.164Z,71.62
2018-08-31T00:16:17.520Z,71.58
2018-08-31T00:16:38.172Z,71.56
2018-08-31T00:16:58.039Z,71.52
2018-08-31T00:17:18.728Z,71.52
2018-08-31T00:17:58.599Z,71.50
2018-08-31T00:18:19.353Z,71.48
2018-08-31T00:18:39.379Z,71.49
2018-08-31T00:18:59.242Z,71.46
2018-08-31T00:19:19.949Z,71.47
2018-08-31T00:19:39.863Z,71.51
2018-08-31T00:20:00.330Z,71.52
2018-08-31T00:20:21.037Z,71.49
2018-08-31T00:20:40.883Z,71.45
2018-08-31T00:21:01.229Z,71.45
2018-08-31T00:21:21.950Z,71.43
2018-08-31T00:21:41.812Z,71.39
2018-08-31T00:22:02.163Z,71.41
2018-08-31T00:22:22.799Z,71.37
2018-08-31T00:22:42.656Z,71.38
2018-08-31T00:23:03.391Z,71.36
2018-08-31T00:23:23.522Z,71.39
2018-08-31T00:23:43.401Z,71.40
2018-08-31T00:24:04.157Z,71.45
2018-08-31T00:24:24.291Z,71.41
2018-08-31T00:24:44.152Z,71.42
2018-08-31T00:25:04.911Z,71.38
2018-08-31T00:25:24.769Z,71.36
2018-08-31T00:25:45.125Z,71.39
2018-08-31T00:26:05.869Z,71.37
2018-08-31T00:26:25.778Z,71.43
2018-08-31T00:26:46.133Z,71.44
2018-08-31T00:27:06.840Z,71.45
2018-08-31T00:27:26.696Z,71.50
2018-08-31T00:27:47.047Z,71.58
2018-08-31T00:28:07.621Z,71.57
2018-08-31T00:28:27.520Z,71.62
2018-08-31T00:28:47.898Z,71.71
2018-08-31T00:29:08.822Z,71.72
2018-08-31T00:29:28.728Z,71.75
2018-08-31T00:29:49.388Z,71.72
2018-08-31T00:30:09.321Z,71.69
2018-08-31T00:30:29.681Z,71.71
2018-08-31T00:30:50.375Z,71.73
2018-08-31T00:31:10.229Z,71.71
2018-08-31T00:31:30.587Z,71.71
2018-08-31T00:31:51.261Z,71.70
2018-08-31T00:32:31.134Z,71.63
2018-08-31T00:32:51.801Z,71.59
2018-08-31T00:33:11.651Z,71.58
2018-08-31T00:33:32.016Z,71.57
2018-08-31T00:33:52.671Z,71.50
2018-08-31T00:34:12.544Z,71.48
2018-08-31T00:34:33.148Z,71.43
2018-08-31T00:34:53.304Z,71.39
2018-08-31T00:35:13.175Z,71.32
2018-08-31T00:35:33.857Z,71.36
2018-08-31T00:35:54.116Z,71.24
2018-08-31T00:36:14.081Z,71.23
2018-08-31T00:36:34.775Z,71.23
2018-08-31T00:36:54.896Z,71.17
2018-08-31T00:37:14.752Z,71.20
2018-08-31T00:37:35.492Z,71.17
2018-08-31T00:37:55.337Z,71.17
2018-08-31T00:38:15.702Z,71.20
2018-08-31T00:38:36.411Z,71.25
2018-08-31T00:38:56.277Z,71.26
2018-08-31T00:39:16.630Z,71.33
2018-08-31T00:39:37.298Z,71.36
2018-08-31T00:39:57.159Z,71.38
2018-08-31T00:40:17.640Z,71.30
2018-08-31T00:40:38.285Z,71.38
2018-08-31T00:40:58.158Z,71.42
2018-08-31T00:41:18.819Z,71.35
2018-08-31T00:41:38.941Z,71.37
2018-08-31T00:41:58.802Z,71.37
2018-08-31T00:42:19.512Z,71.36
2018-08-31T00:42:39.544Z,71.34
2018-08-31T00:42:59.405Z,71.28
2018-08-31T00:43:20.203Z,71.29
2018-08-31T00:43:40.058Z,71.29
2018-08-31T00:44:00.424Z,71.31
2018-08-31T00:44:21.169Z,71.29
2018-08-31T00:44:41.026Z,71.28
2018-08-31T00:45:01.442Z,71.22
2018-08-31T00:45:22.111Z,71.26
2018-08-31T00:45:41.975Z,71.21
2018-08-31T00:46:02.556Z,71.20
2018-08-31T00:46:22.692Z,71.25
2018-08-31T00:46:42.545Z,71.24
2018-08-31T00:47:02.965Z,71.28
2018-08-31T00:47:23.810Z,71.41
2018-08-31T00:47:43.670Z,71.49
2018-08-31T00:48:04.363Z,71.44
2018-08-31T00:48:24.212Z,71.41
2018-08-31T00:48:44.567Z,71.44
2018-08-31T00:49:05.309Z,71.50
2018-08-31T00:49:45.191Z,71.48
2018-08-31T00:50:05.911Z,71.50
2018-08-31T00:50:25.761Z,71.48
2018-08-31T00:50:46.120Z,71.48
2018-08-31T00:51:06.880Z,71.45
2018-08-31T00:51:26.734Z,71.41
2018-08-31T00:51:47.154Z,71.48
2018-08-31T00:52:07.797Z,71.45
2018-08-31T00:52:27.726Z,71.49
2018-08-31T00:52:48.186Z,71.51
2018-08-31T00:53:08.837Z,71.42
2018-08-31T00:53:28.693Z,71.44
2018-08-31T00:53:49.396Z,71.45
2018-08-31T00:54:09.243Z,71.43
2018-08-31T00:54:29.611Z,71.48
2018-08-31T00:54:50.319Z,71.43
2018-08-31T00:55:10.359Z,71.47
2018-08-31T00:55:30.298Z,71.47
2018-08-31T00:55:51.027Z,71.51
2018-08-31T00:56:10.883Z,71.52
2018-08-31T00:56:31.245Z,71.51
2018-08-31T00:56:51.919Z,71.45
2018-08-31T00:57:11.823Z,71.44
2018-08-31T00:57:32.197Z,71.56
2018-08-31T00:57:52.834Z,71.51
2018-08-31T00:58:12.772Z,71.67
2018-08-31T00:58:33.360Z,71.64
2018-08-31T00:58:53.507Z,71.63
2018-08-31T00:59:13.365Z,71.68
2018-08-31T00:59:34.065Z,71.69
2018-08-31T00:59:54.156Z,71.69
2018-08-31T01:00:14.063Z,71.73
2018-08-31T01:00:34.767Z,71.75
2018-08-31T01:00:54.766Z,71.76
2018-08-31T01:01:15.127Z,71.79
2018-08-31T01:01:35.853Z,71.77
2018-08-31T01:01:55.732Z,71.81
2018-08-31T01:02:16.082Z,71.81
2018-08-31T01:02:36.790Z,71.82
2018-08-31T01:02:56.634Z,71.86
2018-08-31T01:03:17.148Z,71.85
2018-08-31T01:03:37.309Z,71.97
2018-08-31T01:03:57.159Z,71.93
2018-08-31T01:04:17.504Z,71.96
2018-08-31T01:04:38.165Z,71.93
2018-08-31T01:04:58.024Z,71.94
2018-08-31T01:05:18.676Z,71.96
2018-08-31T01:05:38.963Z,71.92
2018-08-31T01:05:58.866Z,72.00
2018-08-31T01:06:19.586Z,71.87
2018-08-31T01:06:39.592Z,71.90
2018-08-31T01:06:59.448Z,71.82
2018-08-31T01:07:20.195Z,71.78
2018-08-31T01:08:00.048Z,71.83
2018-08-31T01:08:20.772Z,71.91
2018-08-31T01:08:40.631Z,71.86
2018-08-31T01:09:00.998Z,71.88
2018-08-31T01:09:21.701Z,71.97
2018-08-31T01:09:41.575Z,71.90
2018-08-31T01:10:02.205Z,71.85
2018-08-31T01:10:22.376Z,71.90
2018-08-31T01:10:42.306Z,71.89
2018-08-31T01:11:02.938Z,71.94
2018-08-31T01:11:23.086Z,71.86
2018-08-31T01:11:42.940Z,71.84
2018-08-31T01:12:23.606Z,71.86
2018-08-31T01:12:43.454Z,71.78
2018-08-31T01:13:04.182Z,71.82
2018-08-31T01:13:24.412Z,71.86
2018-08-31T01:13:44.264Z,71.86
2018-08-31T01:14:04.956Z,71.92
2018-08-31T01:14:24.815Z,71.85
2018-08-31T01:14:45.180Z,71.85
2018-08-31T01:15:05.922Z,71.81
2018-08-31T01:15:25.980Z,71.83
2018-08-31T01:15:45.833Z,71.84
2018-08-31T01:16:06.530Z,71.93
2018-08-31T01:16:26.393Z,71.82
2018-08-31T01:16:46.743Z,71.82
2018-08-31T01:17:07.396Z,71.82
2018-08-31T01:17:27.238Z,71.82
2018-08-31T01:17:47.775Z,71.78
2018-08-31T01:18:07.781Z,71.79
2018-08-31T01:18:27.628Z,71.80
2018-08-31T01:18:48.050Z,71.86
2018-08-31T01:19:08.403Z,71.82
2018-08-31T01:19:28.752Z,71.81
2018-08-31T01:19:49.475Z,71.79
2018-08-31T01:20:09.335Z,71.85
2018-08-31T01:20:29.806Z,71.84
2018-08-31T01:20:50.554Z,71.83
2018-08-31T01:21:10.410Z,71.87
2018-08-31T01:21:30.769Z,71.82
2018-08-31T01:21:51.425Z,71.82
2018-08-31T01:22:11.274Z,71.86
2018-08-31T01:22:31.775Z,71.94
2018-08-31T01:22:52.432Z,71.98
2018-08-31T01:23:12.294Z,72.03
2018-08-31T01:23:32.651Z,71.96
2018-08-31T01:23:53.304Z,72.00
2018-08-31T01:24:13.258Z,72.02
2018-08-31T01:24:33.986Z,72.03
2018-08-31T01:24:54.199Z,72.09
2018-08-31T01:25:14.304Z,72.05
2018-08-31T01:25:34.507Z,72.04
2018-08-31T01:25:54.555Z,72.10
2018-08-31T01:26:14.412Z,72.15
2018-08-31T01:26:35.124Z,72.23
2018-08-31T01:26:54.997Z,72.25
2018-08-31T01:27:15.348Z,72.22
2018-08-31T01:27:36.059Z,72.29
2018-08-31T01:27:55.914Z,72.36
2018-08-31T01:28:16.270Z,72.26
2018-08-31T01:28:36.918Z,72.33
2018-08-31T01:28:56.770Z,72.42
2018-08-31T01:29:17.133Z,72.40
2018-08-31T01:29:37.771Z,72.40
2018-08-31T01:29:57.656Z,72.38
2018-08-31T01:30:18.364Z,72.47
2018-08-31T01:30:58.239Z,72.61
2018-08-31T01:31:18.969Z,72.58
2018-08-31T01:31:38.994Z,72.64
2018-08-31T01:31:58.852Z,72.62
2018-08-31T01:32:19.573Z,72.79
2018-08-31T01:32:39.573Z,72.68
2018-08-31T01:32:59.940Z,72.59
2018-08-31T01:33:20.679Z,72.62
2018-08-31T01:33:40.537Z,72.65
2018-08-31T01:34:00.893Z,72.59
2018-08-31T01:34:21.419Z,72.65
2018-08-31T01:34:41.285Z,72.68
2018-08-31T01:35:01.640Z,72.66
2018-08-31T01:35:22.333Z,72.73
2018-08-31T01:35:42.300Z,72.71
2018-08-31T01:36:03.008Z,72.67
2018-08-31T01:36:23.169Z,72.68
2018-08-31T01:36:43.016Z,72.67
2018-08-31T01:37:03.712Z,72.69
2018-08-31T01:37:23.939Z,72.66
2018-08-31T01:37:43.791Z,72.67
2018-08-31T01:38:04.513Z,72.69
2018-08-31T01:38:24.561Z,72.70
2018-08-31T01:38:44.417Z,72.75
2018-08-31T01:39:05.158Z,72.68
2018-08-31T01:39:25.020Z,72.82
2018-08-31T01:39:45.428Z,72.79
2018-08-31T01:40:06.109Z,72.76
2018-08-31T01:40:25.981Z,72.74
2018-08-31T01:40:46.340Z,72.72
2018-08-31T01:41:07.014Z,72.82
2018-08-31T01:41:26.868Z,72.74
2018-08-31T01:41:47.226Z,72.79
2018-08-31T01:42:07.868Z,72.87
2018-08-31T01:42:27.730Z,72.82
2018-08-31T01:42:48.365Z,72.86
2018-08-31T01:43:08.415Z,72.86
2018-08-31T01:43:28.268Z,72.85
2018-08-31T01:43:48.952Z,72.85
2018-08-31T01:44:09.155Z,72.84
2018-08-31T01:44:29.018Z,72.83
2018-08-31T01:44:49.729Z,72.84
2018-08-31T01:45:09.881Z,72.82
2018-08-31T01:45:29.822Z,72.95
2018-08-31T01:45:50.566Z,72.80
2018-08-31T01:46:10.445Z,72.87
2018-08-31T01:46:30.793Z,72.80
2018-08-31T01:46:51.487Z,72.88
2018-08-31T01:47:11.340Z,72.88
2018-08-31T01:47:31.683Z,72.89
2018-08-31T01:47:52.388Z,73.01
2018-08-31T01:48:12.248Z,72.86
2018-08-31T01:48:32.610Z,72.88
2018-08-31T01:48:53.263Z,72.85
2018-08-31T01:49:13.121Z,72.90
2018-08-31T01:49:33.784Z,72.92
2018-08-31T01:49:53.923Z,72.96
2018-08-31T01:50:13.816Z,73.05
2018-08-31T01:50:34.560Z,73.00
2018-08-31T01:50:54.689Z,73.02
2018-08-31T01:51:14.596Z,73.04
2018-08-31T01:51:35.333Z,73.14
2018-08-31T01:51:55.177Z,73.16
2018-08-31T01:52:15.545Z,73.16
2018-08-31T01:52:36.238Z,73.28
2018-08-31T01:52:56.069Z,73.25
2018-08-31T01:53:16.418Z,73.18
2018-08-31T01:53:36.768Z,73.22
2018-08-31T01:53:57.306Z,73.22
2018-08-31T01:54:17.168Z,73.29
2018-08-31T01:54:37.810Z,73.32
2018-08-31T01:54:57.672Z,73.28
2018-08-31T01:55:18.129Z,73.33
2018-08-31T01:55:38.771Z,73.37
2018-08-31T01:55:58.745Z,73.40
2018-08-31T01:56:19.518Z,73.60
2018-08-31T01:56:39.403Z,73.65
2018-08-31T01:57:20.172Z,73.55
2018-08-31T01:57:40.046Z,73.52
2018-08-31T01:58:00.403Z,73.51
2018-08-31T01:58:21.130Z,73.54
2018-08-31T01:58:40.984Z,73.52
2018-08-31T01:59:01.344Z,73.52
2018-08-31T01:59:22.010Z,73.55
2018-08-31T01:59:41.866Z,73.59
2018-08-31T02:00:02.524Z,73.52
2018-08-31T02:00:22.664Z,73.64
2018-08-31T02:00:42.529Z,73.63
2018-08-31T02:01:02.890Z,73.71
2018-08-31T02:01:23.538Z,73.62
2018-08-31T02:01:43.386Z,73.68
2018-08-31T02:02:04.047Z,73.70
2018-08-31T02:02:24.250Z,73.70
2018-08-31T02:02:44.108Z,73.67
2018-08-31T02:03:04.803Z,73.68
2018-08-31T02:03:24.953Z,73.71
2018-08-31T02:03:45.055Z,73.70
2018-08-31T02:04:05.310Z,73.59
2018-08-31T02:04:25.122Z,73.69
2018-08-31T02:05:05.905Z,73.67
2018-08-31T02:05:25.767Z,73.61
2018-08-31T02:05:46.138Z,73.67
2018-08-31T02:06:06.808Z,73.80
2018-08-31T02:06:26.663Z,73.82
2018-08-31T02:06:47.019Z,73.86
2018-08-31T02:07:07.657Z,73.94
2018-08-31T02:07:27.534Z,73.92
2018-08-31T02:07:47.915Z,73.97
2018-08-31T02:08:08.272Z,73.96
2018-08-31T02:08:28.623Z,73.96
2018-08-31T02:08:49.327Z,73.98
2018-08-31T02:09:09.513Z,74.00
2018-08-31T02:09:29.372Z,74.03
2018-08-31T02:09:50.111Z,74.01
2018-08-31T02:10:09.958Z,74.02
2018-08-31T02:10:30.306Z,73.99
2018-08-31T02:10:51.003Z,73.98
2018-08-31T02:11:10.874Z,74.01
2018-08-31T02:11:31.220Z,74.00
2018-08-31T02:11:51.979Z,74.08
2018-08-31T02:12:11.831Z,74.03
2018-08-31T02:12:32.184Z,74.07
2018-08-31T02:12:52.532Z,74.05
2018-08-31T02:13:12.896Z,74.22
2018-08-31T02:13:33.489Z,74.10
2018-08-31T02:13:53.632Z,74.19
2018-08-31T02:14:13.487Z,74.17
2018-08-31T02:14:34.170Z,74.28
2018-08-31T02:14:54.168Z,74.29
2018-08-31T02:15:14.348Z,74.30
2018-08-31T02:15:34.563Z,74.28
2018-08-31T02:15:54.470Z,74.51
2018-08-31T02:16:14.829Z,74.34
2018-08-31T02:16:35.556Z,74.36
2018-08-31T02:16:55.410Z,74.29
2018-08-31T02:17:15.768Z,74.51
2018-08-31T02:17:36.422Z,74.33
2018-08-31T02:17:56.280Z,74.44
2018-08-31T02:18:16.632Z,74.43
2018-08-31T02:18:37.256Z,74.61
2018-08-31T02:18:57.107Z,74.54
2018-08-31T02:19:17.464Z,74.64
2018-08-31T02:19:38.109Z,74.64
2018-08-31T02:20:18.098Z,74.67
2018-08-31T02:20:38.762Z,74.56
2018-08-31T02:20:58.673Z,74.74
2018-08-31T02:21:19.379Z,74.69
2018-08-31T02:21:39.410Z,74.77
2018-08-31T02:21:59.270Z,74.74
2018-08-31T02:22:20.069Z,74.74
2018-08-31T02:22:39.908Z,74.88
2018-08-31T02:23:00.265Z,74.82
2018-08-31T02:23:20.959Z,74.84
2018-08-31T02:23:40.815Z,74.84
2018-08-31T02:24:01.175Z,74.84
2018-08-31T02:24:21.843Z,74.91
2018-08-31T02:24:41.697Z,74.83
2018-08-31T02:25:02.290Z,74.88
2018-08-31T02:25:22.445Z,75.19
2018-08-31T02:25:42.432Z,75.04
2018-08-31T02:26:02.803Z,75.02
2018-08-31T02:26:23.457Z,75.04
2018-08-31T02:26:43.315Z,75.02
2018-08-31T02:27:04.061Z,75.11
2018-08-31T02:27:24.026Z,75.16
2018-08-31T02:27:44.381Z,75.13
2018-08-31T02:28:05.210Z,75.13
2018-08-31T02:28:25.061Z,75.27
2018-08-31T02:28:45.413Z,75.18
2018-08-31T02:29:06.154Z,75.17
2018-08-31T02:29:26.015Z,75.24
2018-08-31T02:29:46.383Z,75.20
2018-08-31T02:30:07.070Z,75.24
2018-08-31T02:30:26.931Z,75.17
2018-08-31T02:30:47.286Z,75.38
2018-08-31T02:31:07.854Z,75.33
2018-08-31T02:31:27.705Z,75.41
2018-08-31T02:31:48.202Z,75.59
2018-08-31T02:32:08.853Z,75.39
2018-08-31T02:32:28.704Z,75.48
2018-08-31T02:32:49.392Z,75.38
2018-08-31T02:33:09.237Z,75.40
2018-08-31T02:33:29.617Z,75.56
2018-08-31T02:33:50.360Z,75.57
2018-08-31T02:34:10.235Z,75.75
2018-08-31T02:34:30.675Z,75.82
2018-08-31T02:34:51.341Z,75.72
2018-08-31T02:35:11.188Z,75.70
2018-08-31T02:35:31.531Z,75.92
2018-08-31T02:35:52.209Z,75.86
2018-08-31T02:36:12.081Z,75.68
2018-08-31T02:36:32.458Z,75.83
2018-08-31T02:36:53.094Z,75.83
2018-08-31T02:37:12.946Z,75.86
2018-08-31T02:37:33.600Z,75.80
2018-08-31T02:37:53.749Z,75.87
2018-08-31T02:38:13.620Z,75.73
2018-08-31T02:38:34.337Z,75.81
2018-08-31T02:38:54.418Z,75.81
2018-08-31T02:39:14.314Z,75.83
2018-08-31T02:39:35.060Z,75.95
2018-08-31T02:39:54.921Z,76.04
2018-08-31T02:40:15.503Z,75.89
2018-08-31T02:40:35.700Z,75.91
2018-08-31T02:40:55.561Z,75.93
2018-08-31T02:41:15.913Z,75.90
2018-08-31T02:41:36.567Z,75.86
2018-08-31T02:41:56.525Z,76.05
2018-08-31T02:42:16.880Z,76.04
2018-08-31T02:42:37.523Z,76.03
2018-08-31T02:42:57.374Z,76.02
2018-08-31T02:43:17.794Z,76.27
2018-08-31T02:43:38.447Z,76.21
2018-08-31T02:43:58.373Z,76.38
2018-08-31T02:44:19.028Z,76.23
2018-08-31T02:44:39.183Z,76.36
2018-08-31T02:44:59.202Z,76.31
2018-08-31T02:45:19.400Z,76.32
2018-08-31T02:45:39.492Z,76.32
2018-08-31T02:45:59.353Z,76.28
2018-08-31T02:46:20.110Z,76.37
2018-08-31T02:46:39.970Z,76.48
2018-08-31T02:47:00.403Z,76.41
2018-08-31T02:47:21.034Z,76.54
2018-08-31T02:47:40.890Z,76.51
2018-08-31T02:48:01.246Z,76.63
2018-08-31T02:48:21.923Z,76.64
2018-08-31T02:48:41.830Z,76.63
2018-08-31T02:49:02.483Z,76.71
2018-08-31T02:49:22.621Z,76.73
2018-08-31T02:49:42.476Z,76.89
2018-08-31T02:50:03.120Z,76.90
2018-08-31T02:50:23.274Z,76.88
2018-08-31T02:50:43.126Z,76.78
2018-08-31T02:51:03.948Z,76.76
2018-08-31T02:51:24.184Z,76.67
2018-08-31T02:51:44.048Z,76.75
2018-08-31T02:52:04.718Z,76.82
2018-08-31T02:52:24.603Z,76.81
2018-08-31T02:52:44.948Z,76.77
2018-08-31T02:53:05.662Z,76.82
2018-08-31T02:53:25.518Z,76.81
2018-08-31T02:53:45.989Z,76.83
2018-08-31T02:54:06.620Z,76.89
2018-08-31T02:54:26.463Z,76.81
2018-08-31T02:54:46.821Z,76.81
2018-08-31T02:55:07.358Z,76.96
2018-08-31T02:55:27.195Z,76.90
2018-08-31T02:55:47.597Z,76.87
2018-08-31T02:56:08.265Z,76.84
2018-08-31T02:56:28.131Z,76.91
2018-08-31T02:56:48.823Z,76.96
2018-08-31T02:57:08.940Z,76.99
2018-08-31T02:57:28.797Z,77.05
2018-08-31T02:57:49.503Z,77.05
2018-08-31T02:58:09.467Z,77.01
2018-08-31T02:58:29.812Z,77.04
2018-08-31T02:58:50.522Z,77.08
2018-08-31T02:59:30.386Z,77.16
2018-08-31T02:59:51.089Z,77.21
2018-08-31T03:00:10.939Z,77.30
2018-08-31T03:00:31.505Z,77.23
2018-08-31T03:00:51.364Z,77.35
2018-08-31T03:01:11.756Z,77.28
2018-08-31T03:01:32.168Z,77.40
2018-08-31T03:01:52.805Z,77.34
2018-08-31T03:02:12.661Z,77.30
2018-08-31T03:02:33.129Z,77.30
2018-08-31T03:02:53.960Z,77.26
2018-08-31T03:03:13.813Z,77.28
2018-08-31T03:03:34.531Z,77.42
2018-08-31T03:03:54.575Z,77.50
2018-08-31T03:04:14.419Z,77.43
2018-08-31T03:04:35.124Z,77.41
2018-08-31T03:04:55.280Z,77.50
2018-08-31T03:05:15.468Z,77.51
2018-08-31T03:05:35.714Z,77.42
2018-08-31T03:05:55.562Z,77.45
2018-08-31T03:06:15.934Z,77.41
2018-08-31T03:06:36.561Z,77.55
2018-08-31T03:06:56.418Z,77.74
2018-08-31T03:07:16.771Z,77.61
2018-08-31T03:07:37.441Z,77.56
2018-08-31T03:07:57.293Z,77.47
2018-08-31T03:08:17.641Z,77.48
2018-08-31T03:08:38.291Z,77.37
2018-08-31T03:08:58.144Z,77.50
2018-08-31T03:09:18.868Z,77.48
2018-08-31T03:09:38.998Z,77.49
2018-08-31T03:09:58.906Z,77.50
2018-08-31T03:10:19.593Z,77.64
2018-08-31T03:10:39.559Z,77.68
2018-08-31T03:10:59.905Z,77.57
2018-08-31T03:11:20.620Z,77.54
2018-08-31T03:11:40.577Z,77.60
2018-08-31T03:12:00.965Z,77.57
2018-08-31T03:12:21.671Z,77.46
2018-08-31T03:12:41.525Z,77.53
2018-08-31T03:13:02.065Z,77.64
2018-08-31T03:13:22.227Z,77.75
2018-08-31T03:13:42.076Z,77.63
2018-08-31T03:14:02.677Z,77.63
2018-08-31T03:14:22.827Z,77.64
2018-08-31T03:14:42.670Z,77.69
2018-08-31T03:15:03.126Z,77.69
2018-08-31T03:15:23.786Z,77.73
2018-08-31T03:15:43.687Z,77.67
2018-08-31T03:16:04.379Z,77.71
2018-08-31T03:16:24.509Z,77.77
2018-08-31T03:16:44.364Z,77.76
2018-08-31T03:17:05.078Z,77.69
2018-08-31T03:17:24.943Z,77.67
2018-08-31T03:17:45.335Z,77.68
2018-08-31T03:18:06.030Z,77.89
2018-08-31T03:18:25.904Z,77.87
2018-08-31T03:18:46.316Z,77.81
2018-08-31T03:19:06.991Z,77.79
2018-08-31T03:19:26.837Z,77.88
2018-08-31T03:19:47.213Z,77.89
2018-08-31T03:20:07.830Z,77.98
2018-08-31T03:20:27.685Z,77.98
2018-08-31T03:20:48.186Z,78.03
2018-08-31T03:21:09.068Z,77.78
2018-08-31T03:21:29.005Z,77.92
2018-08-31T03:21:49.703Z,77.88
2018-08-31T03:22:09.685Z,77.82
2018-08-31T03:22:30.054Z,77.86
2018-08-31T03:22:50.785Z,77.95
2018-08-31T03:23:10.744Z,77.91
2018-08-31T03:23:31.103Z,77.91
2018-08-31T03:23:51.763Z,77.97
2018-08-31T03:24:11.864Z,78.29
2018-08-31T03:24:31.730Z,78.07
2018-08-31T03:24:52.382Z,78.08
2018-08-31T03:25:12.476Z,77.98
2018-08-31T03:25:32.337Z,78.12
2018-08-31T03:25:52.983Z,78.09
2018-08-31T03:26:12.866Z,78.11
2018-08-31T03:26:33.455Z,78.09
2018-08-31T03:26:53.588Z,78.13
2018-08-31T03:27:13.444Z,78.11
2018-08-31T03:27:34.193Z,78.16
2018-08-31T03:27:54.383Z,78.14
2018-08-31T03:28:14.249Z,78.31
2018-08-31T03:28:34.961Z,78.29
2018-08-31T03:28:54.824Z,78.32
2018-08-31T03:29:15.761Z,78.25
2018-08-31T03:29:35.979Z,78.35
2018-08-31T03:29:55.838Z,78.29
2018-08-31T03:30:16.510Z,78.32
2018-08-31T03:30:36.730Z,78.27
2018-08-31T03:30:56.658Z,78.26
2018-08-31T03:31:17.040Z,78.28
2018-08-31T03:31:37.688Z,78.28
2018-08-31T03:31:57.577Z,78.30
2018-08-31T03:32:17.980Z,78.40
2018-08-31T03:32:38.636Z,78.48
2018-08-31T03:32:58.498Z,78.35
2018-08-31T03:33:19.163Z,78.36
2018-08-31T03:33:39.202Z,78.39
2018-08-31T03:33:59.142Z,78.48
2018-08-31T03:34:19.872Z,78.42
2018-08-31T03:34:39.845Z,78.38
2018-08-31T03:35:00.202Z,78.46
2018-08-31T03:35:20.951Z,78.42
2018-08-31T03:35:40.868Z,78.37
2018-08-31T03:36:01.337Z,78.47
2018-08-31T03:36:22.046Z,78.45
2018-08-31T03:36:41.905Z,78.49
2018-08-31T03:37:02.618Z,78.62
2018-08-31T03:37:22.710Z,78.57
2018-08-31T03:37:42.562Z,78.53
2018-08-31T03:38:03.031Z,78.51
2018-08-31T03:38:23.661Z,78.58
2018-08-31T03:38:43.517Z,78.64
2018-08-31T03:39:04.221Z,78.76
2018-08-31T03:39:24.314Z,78.69
2018-08-31T03:39:44.181Z,78.73
2018-08-31T03:40:04.826Z,78.77
2018-08-31T03:40:24.680Z,78.80
2018-08-31T03:40:45.046Z,78.76
2018-08-31T03:41:05.737Z,78.74
2018-08-31T03:41:25.604Z,78.77
2018-08-31T03:41:46.014Z,78.80
2018-08-31T03:42:06.688Z,78.81
2018-08-31T03:42:26.591Z,78.77
2018-08-31T03:42:46.944Z,78.84
2018-08-31T03:43:07.604Z,78.92
2018-08-31T03:43:27.529Z,78.94
2018-08-31T03:43:47.847Z,78.95
2018-08-31T03:44:08.503Z,79.10
2018-08-31T03:44:28.365Z,78.99
2018-08-31T03:44:49.086Z,78.96
2018-08-31T03:45:09.488Z,78.95
2018-08-31T03:45:29.363Z,78.98
2018-08-31T03:45:50.106Z,79.04
2018-08-31T03:46:10.256Z,78.98
2018-08-31T03:46:30.132Z,79.13
2018-08-31T03:46:50.835Z,79.11
2018-08-31T03:47:10.713Z,79.30
2018-08-31T03:47:31.832Z,79.30
2018-08-31T03:48:02.725Z,79.21
2018-08-31T03:48:14.321Z,79.34
2018-08-31T03:48:31.692Z,79.29
2018-08-31T03:48:52.353Z,79.31
2018-08-31T03:49:12.201Z,79.26
2018-08-31T03:49:32.570Z,79.25
2018-08-31T03:49:53.221Z,79.24
2018-08-31T03:50:13.240Z,79.52
2018-08-31T03:50:33.302Z,79.35
2018-08-31T03:50:53.766Z,79.35
2018-08-31T03:51:13.641Z,79.36
2018-08-31T03:51:34.372Z,79.46
2018-08-31T03:51:54.302Z,79.30
2018-08-31T03:52:14.666Z,79.36
2018-08-31T03:52:35.379Z,79.41
2018-08-31T03:53:15.261Z,79.44
2018-08-31T03:53:35.963Z,79.40
2018-08-31T03:53:55.838Z,79.42
2018-08-31T03:54:16.207Z,79.37
2018-08-31T03:54:36.883Z,79.41
2018-08-31T03:54:56.757Z,79.37
2018-08-31T03:55:17.113Z,79.39
2018-08-31T03:55:37.753Z,79.37
2018-08-31T03:55:57.603Z,79.40
2018-08-31T03:56:17.991Z,79.43
2018-08-31T03:56:38.662Z,79.39
2018-08-31T03:57:18.911Z,79.44
2018-08-31T03:57:39.132Z,79.42
2018-08-31T03:57:59.141Z,79.55
2018-08-31T03:58:19.353Z,79.47
2018-08-31T03:58:39.462Z,79.62
2018-08-31T03:58:59.439Z,79.53
2018-08-31T03:59:20.212Z,79.48
2018-08-31T03:59:40.071Z,79.59
2018-08-31T04:00:00.433Z,79.59
2018-08-31T04:00:21.140Z,79.58
2018-08-31T04:00:40.997Z,79.65
2018-08-31T04:01:01.373Z,79.66
2018-08-31T04:01:22.048Z,79.69
2018-08-31T04:01:41.947Z,79.65
2018-08-31T04:02:02.305Z,79.72
2018-08-31T04:02:22.957Z,79.62
2018-08-31T04:02:42.824Z,79.57
2018-08-31T04:03:03.485Z,79.54
2018-08-31T04:03:23.623Z,79.60
2018-08-31T04:03:43.482Z,79.54
2018-08-31T04:04:04.213Z,79.51
2018-08-31T04:04:24.159Z,79.55
2018-08-31T04:04:44.523Z,79.58
2018-08-31T04:05:05.259Z,79.59
2018-08-31T04:05:25.120Z,79.58
2018-08-31T04:05:45.495Z,79.61
2018-08-31T04:06:06.218Z,79.58
2018-08-31T04:06:26.074Z,79.63
2018-08-31T04:06:46.438Z,79.55
2018-08-31T04:07:07.141Z,79.57
2018-08-31T04:07:26.989Z,79.69
2018-08-31T04:07:47.335Z,79.58
2018-08-31T04:08:07.921Z,79.59
2018-08-31T04:08:27.782Z,79.58
2018-08-31T04:08:48.307Z,79.62
2018-08-31T04:09:08.460Z,79.58
2018-08-31T04:09:28.336Z,79.60
2018-08-31T04:09:49.025Z,79.56
2018-08-31T04:10:09.142Z,79.58
2018-08-31T04:10:29.140Z,79.60
2018-08-31T04:10:49.889Z,79.65
2018-08-31T04:11:09.961Z,79.61
2018-08-31T04:11:29.826Z,79.74
2018-08-31T04:11:50.580Z,79.53
2018-08-31T04:12:10.437Z,79.51
2018-08-31T04:12:30.801Z,79.64
2018-08-31T04:12:51.473Z,79.69
2018-08-31T04:13:11.351Z,79.77
2018-08-31T04:13:31.713Z,79.74
2018-08-31T04:13:52.419Z,79.70
2018-08-31T04:14:12.277Z,79.73
2018-08-31T04:14:32.633Z,79.73
2018-08-31T04:14:53.348Z,79.64
2018-08-31T04:15:13.285Z,79.73
2018-08-31T04:15:33.948Z,79.70
2018-08-31T04:15:54.116Z,79.81
2018-08-31T04:16:14.019Z,79.84
2018-08-31T04:16:34.760Z,80.11
2018-08-31T04:16:54.611Z,80.08
2018-08-31T04:17:14.995Z,79.90
2018-08-31T04:17:35.702Z,79.98
2018-08-31T04:17:55.563Z,79.94
2018-08-31T04:18:15.928Z,79.98
2018-08-31T04:18:36.638Z,79.97
2018-08-31T04:18:56.499Z,79.96
2018-08-31T04:19:16.849Z,79.98
2018-08-31T04:19:37.542Z,80.06
2018-08-31T04:19:57.403Z,80.09
2018-08-31T04:20:18.027Z,80.00
2018-08-31T04:20:38.165Z,80.02
2018-08-31T04:20:58.033Z,80.08
2018-08-31T04:21:18.684Z,80.11
2018-08-31T04:21:38.871Z,80.04
2018-08-31T04:21:58.878Z,80.10
2018-08-31T04:22:19.130Z,80.05
2018-08-31T04:22:39.186Z,80.14
2018-08-31T04:22:59.050Z,80.14
2018-08-31T04:23:19.780Z,80.17
2018-08-31T04:23:39.889Z,80.14
2018-08-31T04:23:59.788Z,80.08
2018-08-31T04:24:20.537Z,80.08
2018-08-31T04:24:40.387Z,80.10
2018-08-31T04:25:00.759Z,80.15
2018-08-31T04:25:21.480Z,80.17